NORTHERN NASSAU  -  Coastal Flood Statement Coastal Flood Statement        SOUTHERN NASSAU  -  Coastal Flood Statement Coastal Flood Statement      

Active alerts

Northern Nassau
  Details for Northern Nassau Coastal Flood Statement
Southern Nassau
  Details for Southern Nassau Coastal Flood Statement


WXM80 ListenWXM80 Stop

You find our weather info also at:

UK Metoffice

WeatherCloud

Weather Underground

Northeastern Weather Network

AWEKAS

Citizen Weather Observer Program (CWOP)

HAMweather, WeatherForYou, PWS Weather


Weather Underground History page Text

Daily Summary for May 29, 2017 Units:  Both    English   Metric
« Previous Day
Next Day »
Daily Weekly Monthly Yearly Custom
  High: Low: Average:
Temperature: 59.2 °F /  15.1 °C 54.2 °F /  12.3 °C 56.1 °F /  13.4 °C
Dew Point: 56.9 °F /  13.8 °C 53.1 °F /  11.7 °C 54.3 °F /  12.4 °C
Humidity: 98 % 81 % 94 %
Wind Speed: 7.6 mph /  12.2 km/h - 1.7 mph /  2.7 km/h
Wind Gust: 16.1 mph /  25.9 km/h - -
Wind:- - ENE
Pressure: 30.07 in /  1018.2 hPa 29.84 in /  1010.4 hPa -
Precipitation: 0.28 in /  7.11 mm    
Historical Graphs
 
 
Tabular Data for May 29, 2017
Time Temperature Dew Point Pressure Wind Wind Speed Wind Gust Humidity Rainfall Rate (Hourly)
00:04 59.2 °F /  15.1 °C 53.4 °F /  11.9 °C 29.89 in /  1012.1 hPa Calm     81 % 0.00 in /  0 mm
00:09 59.2 °F /  15.1 °C 53.4 °F /  11.9 °C 29.89 in /  1012.1 hPa SSE 0.1 mph /  0.2 km/h 1.2 mph /  1.9 km/h 81 % 0.00 in /  0 mm
00:12 59.1 °F /  15.1 °C 53.3 °F /  11.8 °C 29.89 in /  1012.1 hPa Calm     81 % 0.00 in /  0 mm
00:17 59.1 °F /  15.1 °C 53.6 °F /  12 °C 29.89 in /  1012.1 hPa Calm     82 % 0.00 in /  0 mm
00:22 59.1 °F /  15.1 °C 53.6 °F /  12 °C 29.89 in /  1012.1 hPa Calm     82 % 0.00 in /  0 mm
00:27 59.1 °F /  15.1 °C 53.6 °F /  12 °C 29.89 in /  1012.1 hPa Calm   1.2 mph /  1.9 km/h 82 % 0.00 in /  0 mm
00:32 59.1 °F /  15.1 °C 53.6 °F /  12 °C 29.89 in /  1012.1 hPa SSE 0.1 mph /  0.2 km/h 1.2 mph /  1.9 km/h 82 % 0.00 in /  0 mm
00:37 59.0 °F /  15 °C 53.8 °F /  12.1 °C 29.89 in /  1012.1 hPa SSE 0.1 mph /  0.2 km/h 1.2 mph /  1.9 km/h 83 % 0.00 in /  0 mm
00:42 59.0 °F /  15 °C 54.2 °F /  12.3 °C 29.89 in /  1012.1 hPa SSE 0.2 mph /  0.3 km/h 1.2 mph /  1.9 km/h 84 % 0.00 in /  0 mm
00:47 59.0 °F /  15 °C 54.2 °F /  12.3 °C 29.89 in /  1012.1 hPa SSE 0.1 mph /  0.2 km/h 1.2 mph /  1.9 km/h 84 % 0.00 in /  0 mm
00:52 59.0 °F /  15 °C 54.2 °F /  12.3 °C 29.89 in /  1012.1 hPa SSE 0.2 mph /  0.3 km/h 1.2 mph /  1.9 km/h 84 % 0.00 in /  0 mm
00:53 59.0 °F /  15 °C 54.2 °F /  12.3 °C 29.89 in /  1012.1 hPa SSE 0.3 mph /  0.5 km/h 1.2 mph /  1.9 km/h 84 % 0.00 in /  0 mm
00:58 59.0 °F /  15 °C 54.2 °F /  12.3 °C 29.88 in /  1011.7 hPa SSE 0.2 mph /  0.3 km/h 1.2 mph /  1.9 km/h 84 % 0.00 in /  0 mm
01:03 58.9 °F /  14.9 °C 54.1 °F /  12.3 °C 29.88 in /  1011.7 hPa SSE 0.5 mph /  0.8 km/h 1.2 mph /  1.9 km/h 84 % 0.00 in /  0 mm
01:08 58.9 °F /  14.9 °C 54.1 °F /  12.3 °C 29.88 in /  1011.7 hPa SSE 0.1 mph /  0.2 km/h 1.2 mph /  1.9 km/h 84 % 0.00 in /  0 mm
01:13 58.9 °F /  14.9 °C 54.4 °F /  12.4 °C 29.88 in /  1011.7 hPa East 0.2 mph /  0.3 km/h 2.3 mph /  3.7 km/h 85 % 0.00 in /  0 mm
01:18 58.9 °F /  14.9 °C 54.7 °F /  12.6 °C 29.88 in /  1011.7 hPa Calm   1.2 mph /  1.9 km/h 86 % 0.00 in /  0 mm
01:23 58.9 °F /  14.9 °C 54.7 °F /  12.6 °C 29.88 in /  1011.7 hPa East 0.3 mph /  0.5 km/h 2.3 mph /  3.7 km/h 86 % 0.00 in /  0 mm
01:28 58.8 °F /  14.9 °C 54.6 °F /  12.6 °C 29.87 in /  1011.4 hPa East 0.1 mph /  0.2 km/h 1.2 mph /  1.9 km/h 86 % 0.00 in /  0 mm
01:33 58.7 °F /  14.8 °C 54.5 °F /  12.5 °C 29.87 in /  1011.4 hPa East 0.5 mph /  0.8 km/h 1.2 mph /  1.9 km/h 86 % 0.00 in /  0 mm
01:38 58.6 °F /  14.8 °C 54.4 °F /  12.4 °C 29.87 in /  1011.4 hPa East 0.1 mph /  0.2 km/h 1.2 mph /  1.9 km/h 86 % 0.00 in /  0 mm
01:43 58.6 °F /  14.8 °C 54.4 °F /  12.4 °C 29.87 in /  1011.4 hPa East 0.3 mph /  0.5 km/h 1.2 mph /  1.9 km/h 86 % 0.00 in /  0 mm
01:48 58.6 °F /  14.8 °C 54.4 °F /  12.4 °C 29.87 in /  1011.4 hPa East 0.3 mph /  0.5 km/h 1.2 mph /  1.9 km/h 86 % 0.00 in /  0 mm
01:53 58.6 °F /  14.8 °C 54.4 °F /  12.4 °C 29.87 in /  1011.4 hPa East 0.4 mph /  0.6 km/h 2.0 mph /  3.2 km/h 86 % 0.00 in /  0 mm
01:58 58.5 °F /  14.7 °C 54.3 °F /  12.4 °C 29.87 in /  1011.4 hPa East 0.1 mph /  0.2 km/h 1.2 mph /  1.9 km/h 86 % 0.00 in /  0 mm
02:03 58.5 °F /  14.7 °C 54.3 °F /  12.4 °C 29.87 in /  1011.4 hPa East 0.5 mph /  0.8 km/h 2.3 mph /  3.7 km/h 86 % 0.00 in /  0 mm
02:08 58.5 °F /  14.7 °C 54.3 °F /  12.4 °C 29.87 in /  1011.4 hPa East 0.7 mph /  1.1 km/h 2.3 mph /  3.7 km/h 86 % 0.00 in /  0 mm
02:13 58.5 °F /  14.7 °C 54.3 °F /  12.4 °C 29.87 in /  1011.4 hPa East 0.4 mph /  0.6 km/h 2.3 mph /  3.7 km/h 86 % 0.00 in /  0 mm
02:18 58.5 °F /  14.7 °C 54.3 °F /  12.4 °C 29.87 in /  1011.4 hPa East 0.5 mph /  0.8 km/h 1.2 mph /  1.9 km/h 86 % 0.00 in /  0 mm
02:23 58.5 °F /  14.7 °C 54.3 °F /  12.4 °C 29.87 in /  1011.4 hPa East 0.3 mph /  0.5 km/h 1.2 mph /  1.9 km/h 86 % 0.00 in /  0 mm
02:28 58.4 °F /  14.7 °C 54.2 °F /  12.3 °C 29.87 in /  1011.4 hPa East 0.6 mph /  1 km/h 1.2 mph /  1.9 km/h 86 % 0.00 in /  0 mm
02:33 58.4 °F /  14.7 °C 54.2 °F /  12.3 °C 29.86 in /  1011.1 hPa East 0.9 mph /  1.4 km/h 2.3 mph /  3.7 km/h 86 % 0.00 in /  0 mm
02:35 58.5 °F /  14.7 °C 54.3 °F /  12.4 °C 29.86 in /  1011.1 hPa East 0.7 mph /  1.1 km/h 2.3 mph /  3.7 km/h 86 % 0.00 in /  0 mm
02:40 58.4 °F /  14.7 °C 54.2 °F /  12.3 °C 29.86 in /  1011.1 hPa East 0.7 mph /  1.1 km/h 1.2 mph /  1.9 km/h 86 % 0.00 in /  0 mm
02:45 58.4 °F /  14.7 °C 54.5 °F /  12.5 °C 29.86 in /  1011.1 hPa East 0.7 mph /  1.1 km/h 2.3 mph /  3.7 km/h 87 % 0.00 in /  0 mm
02:55 58.4 °F /  14.7 °C 54.5 °F /  12.5 °C 29.86 in /  1011.1 hPa East 0.2 mph /  0.3 km/h 1.2 mph /  1.9 km/h 87 % 0.00 in /  0 mm
03:00 58.4 °F /  14.7 °C 54.5 °F /  12.5 °C 29.86 in /  1011.1 hPa East 0.6 mph /  1 km/h 1.2 mph /  1.9 km/h 87 % 0.00 in /  0 mm
03:05 58.4 °F /  14.7 °C 54.5 °F /  12.5 °C 29.86 in /  1011.1 hPa East 0.8 mph /  1.3 km/h 2.3 mph /  3.7 km/h 87 % 0.00 in /  0 mm
03:10 58.4 °F /  14.7 °C 54.5 °F /  12.5 °C 29.86 in /  1011.1 hPa East 0.8 mph /  1.3 km/h 2.3 mph /  3.7 km/h 87 % 0.00 in /  0 mm
03:15 58.4 °F /  14.7 °C 54.5 °F /  12.5 °C 29.86 in /  1011.1 hPa East 0.7 mph /  1.1 km/h 1.2 mph /  1.9 km/h 87 % 0.00 in /  0 mm
03:20 58.4 °F /  14.7 °C 54.5 °F /  12.5 °C 29.86 in /  1011.1 hPa ENE 1.2 mph /  1.9 km/h 2.3 mph /  3.7 km/h 87 % 0.00 in /  0 mm
03:25 58.4 °F /  14.7 °C 54.9 °F /  12.7 °C 29.86 in /  1011.1 hPa ENE 1.4 mph /  2.3 km/h 3.0 mph /  4.8 km/h 88 % 0.00 in /  0 mm
03:30 58.3 °F /  14.6 °C 54.8 °F /  12.7 °C 29.85 in /  1010.7 hPa ENE 2.5 mph /  4 km/h 3.5 mph /  5.6 km/h 88 % 0.00 in /  0 mm
03:35 58.2 °F /  14.6 °C 54.7 °F /  12.6 °C 29.85 in /  1010.7 hPa ENE 1.9 mph /  3.1 km/h 3.5 mph /  5.6 km/h 88 % 0.00 in /  0 mm
03:36 58.2 °F /  14.6 °C 54.7 °F /  12.6 °C 29.85 in /  1010.7 hPa ENE 1.9 mph /  3.1 km/h 3.5 mph /  5.6 km/h 88 % 0.00 in /  0 mm
03:41 58.1 °F /  14.5 °C 54.9 °F /  12.7 °C 29.85 in /  1010.7 hPa ENE 1.7 mph /  2.7 km/h 2.3 mph /  3.7 km/h 89 % 0.00 in /  0 mm
03:46 58.0 °F /  14.4 °C 54.8 °F /  12.7 °C 29.85 in /  1010.7 hPa ENE 2.0 mph /  3.2 km/h 3.5 mph /  5.6 km/h 89 % 0.00 in /  0 mm
03:51 58.0 °F /  14.4 °C 54.8 °F /  12.7 °C 29.85 in /  1010.7 hPa ENE 1.9 mph /  3.1 km/h 3.5 mph /  5.6 km/h 89 % 0.00 in /  0 mm
03:56 58.0 °F /  14.4 °C 54.8 °F /  12.7 °C 29.85 in /  1010.7 hPa ENE 1.2 mph /  1.9 km/h 3.5 mph /  5.6 km/h 89 % 0.00 in /  0 mm
04:01 57.9 °F /  14.4 °C 55.0 °F /  12.8 °C 29.86 in /  1011.1 hPa ENE 1.6 mph /  2.6 km/h 3.5 mph /  5.6 km/h 90 % 0.00 in /  0 mm
04:06 57.9 °F /  14.4 °C 55.0 °F /  12.8 °C 29.85 in /  1010.7 hPa ENE 1.9 mph /  3.1 km/h 3.5 mph /  5.6 km/h 90 % 0.00 in /  0 mm
04:11 57.8 °F /  14.3 °C 55.2 °F /  12.9 °C 29.85 in /  1010.7 hPa ENE 1.7 mph /  2.7 km/h 2.3 mph /  3.7 km/h 91 % 0.01 in /  0.25 mm
04:16 57.7 °F /  14.3 °C 55.4 °F /  13 °C 29.84 in /  1010.4 hPa ENE 2.2 mph /  3.5 km/h 3.5 mph /  5.6 km/h 92 % 0.01 in /  0.25 mm
04:22 57.6 °F /  14.2 °C 55.3 °F /  12.9 °C 29.85 in /  1010.7 hPa ENE 2.2 mph /  3.5 km/h 3.5 mph /  5.6 km/h 92 % 0.01 in /  0.25 mm
04:27 57.5 °F /  14.2 °C 55.5 °F /  13.1 °C 29.85 in /  1010.7 hPa East 3.0 mph /  4.8 km/h 5.0 mph /  8 km/h 93 % 0.01 in /  0.25 mm
04:32 57.3 °F /  14.1 °C 55.3 °F /  12.9 °C 29.86 in /  1011.1 hPa ENE 3.0 mph /  4.8 km/h 3.5 mph /  5.6 km/h 93 % 0.02 in /  0.51 mm
04:37 57.2 °F /  14 °C 55.2 °F /  12.9 °C 29.85 in /  1010.7 hPa ENE 3.2 mph /  5.1 km/h 4.6 mph /  7.4 km/h 93 % 0.02 in /  0.51 mm
04:42 57.1 °F /  13.9 °C 55.1 °F /  12.8 °C 29.86 in /  1011.1 hPa ENE 1.8 mph /  2.9 km/h 3.5 mph /  5.6 km/h 93 % 0.02 in /  0.51 mm
04:47 57.1 °F /  13.9 °C 55.4 °F /  13 °C 29.85 in /  1010.7 hPa ENE 1.5 mph /  2.4 km/h 3.5 mph /  5.6 km/h 94 % 0.02 in /  0.51 mm
04:52 56.9 °F /  13.8 °C 55.2 °F /  12.9 °C 29.85 in /  1010.7 hPa ENE 1.1 mph /  1.8 km/h 2.3 mph /  3.7 km/h 94 % 0.02 in /  0.51 mm
04:57 56.9 °F /  13.8 °C 55.2 °F /  12.9 °C 29.86 in /  1011.1 hPa ENE 0.8 mph /  1.3 km/h 2.3 mph /  3.7 km/h 94 % 0.03 in /  0.76 mm
05:02 56.9 °F /  13.8 °C 55.2 °F /  12.9 °C 29.85 in /  1010.7 hPa ENE 0.6 mph /  1 km/h 2.3 mph /  3.7 km/h 94 % 0.03 in /  0.76 mm
05:07 56.9 °F /  13.8 °C 55.5 °F /  13.1 °C 29.86 in /  1011.1 hPa ENE 1.0 mph /  1.6 km/h 2.3 mph /  3.7 km/h 95 % 0.03 in /  0.76 mm
05:12 56.9 °F /  13.8 °C 55.5 °F /  13.1 °C 29.86 in /  1011.1 hPa ENE 1.0 mph /  1.6 km/h 2.3 mph /  3.7 km/h 95 % 0.02 in /  0.51 mm
05:17 56.8 °F /  13.8 °C 55.4 °F /  13 °C 29.86 in /  1011.1 hPa ENE 0.9 mph /  1.4 km/h 2.3 mph /  3.7 km/h 95 % 0.02 in /  0.51 mm
05:22 56.8 °F /  13.8 °C 55.4 °F /  13 °C 29.86 in /  1011.1 hPa ENE 1.3 mph /  2.1 km/h 2.3 mph /  3.7 km/h 95 % 0.02 in /  0.51 mm
05:27 56.6 °F /  13.7 °C 55.2 °F /  12.9 °C 29.85 in /  1010.7 hPa ENE 1.3 mph /  2.1 km/h 2.3 mph /  3.7 km/h 95 % 0.02 in /  0.51 mm
05:30 56.6 °F /  13.7 °C 55.2 °F /  12.9 °C 29.86 in /  1011.1 hPa ENE 1.1 mph /  1.8 km/h 2.3 mph /  3.7 km/h 95 % 0.03 in /  0.76 mm
05:35 56.5 °F /  13.6 °C 55.1 °F /  12.8 °C 29.86 in /  1011.1 hPa ENE 2.0 mph /  3.2 km/h 5.8 mph /  9.3 km/h 95 % 0.02 in /  0.51 mm
05:40 56.4 °F /  13.6 °C 55.0 °F /  12.8 °C 29.86 in /  1011.1 hPa ENE 1.8 mph /  2.9 km/h 3.5 mph /  5.6 km/h 95 % 0.02 in /  0.51 mm
05:45 56.4 °F /  13.6 °C 55.0 °F /  12.8 °C 29.86 in /  1011.1 hPa ENE 1.8 mph /  2.9 km/h 2.3 mph /  3.7 km/h 95 % 0.03 in /  0.76 mm
05:50 56.3 °F /  13.5 °C 54.9 °F /  12.7 °C 29.86 in /  1011.1 hPa ENE 2.0 mph /  3.2 km/h 3.5 mph /  5.6 km/h 95 % 0.03 in /  0.76 mm
05:55 56.3 °F /  13.5 °C 54.9 °F /  12.7 °C 29.86 in /  1011.1 hPa ENE 2.0 mph /  3.2 km/h 3.0 mph /  4.8 km/h 95 % 0.03 in /  0.76 mm
06:00 56.3 °F /  13.5 °C 54.9 °F /  12.7 °C 29.86 in /  1011.1 hPa ENE 1.7 mph /  2.7 km/h 2.3 mph /  3.7 km/h 95 % 0.04 in /  1.02 mm
06:05 56.3 °F /  13.5 °C 55.2 °F /  12.9 °C 29.86 in /  1011.1 hPa ENE 1.3 mph /  2.1 km/h 3.0 mph /  4.8 km/h 96 % 0.05 in /  1.27 mm
06:11 56.3 °F /  13.5 °C 55.2 °F /  12.9 °C 29.86 in /  1011.1 hPa ENE 1.0 mph /  1.6 km/h 2.0 mph /  3.2 km/h 96 % 0.01 in /  0.25 mm
06:16 56.2 °F /  13.4 °C 55.1 °F /  12.8 °C 29.86 in /  1011.1 hPa ENE 1.0 mph /  1.6 km/h 3.0 mph /  4.8 km/h 96 % 0.01 in /  0.25 mm
06:21 56.2 °F /  13.4 °C 55.1 °F /  12.8 °C 29.86 in /  1011.1 hPa ENE 2.0 mph /  3.2 km/h 5.0 mph /  8 km/h 96 % 0.01 in /  0.25 mm
06:26 56.1 °F /  13.4 °C 55.0 °F /  12.8 °C 29.87 in /  1011.4 hPa ENE 2.0 mph /  3.2 km/h 7.0 mph /  11.3 km/h 96 % 0.01 in /  0.25 mm
06:31 56.1 °F /  13.4 °C 55.0 °F /  12.8 °C 29.87 in /  1011.4 hPa ENE 3.9 mph /  6.3 km/h 5.0 mph /  8 km/h 96 % 0.08 in /  2.03 mm
06:36 56.0 °F /  13.3 °C 54.9 °F /  12.7 °C 29.87 in /  1011.4 hPa ENE 2.0 mph /  3.2 km/h 8.0 mph /  12.9 km/h 96 % 0.00 in /  0 mm
06:41 56.0 °F /  13.3 °C 54.9 °F /  12.7 °C 29.87 in /  1011.4 hPa ENE 2.0 mph /  3.2 km/h 5.0 mph /  8 km/h 96 % 0.00 in /  0 mm
06:46 56.0 °F /  13.3 °C 54.9 °F /  12.7 °C 29.87 in /  1011.4 hPa ENE 2.0 mph /  3.2 km/h 8.0 mph /  12.9 km/h 96 % 0.00 in /  0 mm
06:51 56.0 °F /  13.3 °C 54.9 °F /  12.7 °C 29.86 in /  1011.1 hPa ENE 2.0 mph /  3.2 km/h 7.0 mph /  11.3 km/h 96 % 0.00 in /  0 mm
06:56 56.0 °F /  13.3 °C 54.9 °F /  12.7 °C 29.87 in /  1011.4 hPa ENE 1.0 mph /  1.6 km/h 8.0 mph /  12.9 km/h 96 % 0.00 in /  0 mm
07:01 56.0 °F /  13.3 °C 54.9 °F /  12.7 °C 29.87 in /  1011.4 hPa ENE 3.5 mph /  5.6 km/h 7.0 mph /  11.3 km/h 96 % 0.10 in /  2.54 mm
07:06 56.0 °F /  13.3 °C 54.9 °F /  12.7 °C 29.87 in /  1011.4 hPa ENE 2.7 mph /  4.3 km/h 7.0 mph /  11.3 km/h 96 % 0.10 in /  2.54 mm
07:10 56.0 °F /  13.3 °C 54.9 °F /  12.7 °C 29.88 in /  1011.7 hPa ENE 2.4 mph /  3.9 km/h 4.6 mph /  7.4 km/h 96 % 0.11 in /  2.79 mm
07:16 56.0 °F /  13.3 °C 54.8 °F /  12.7 °C 29.87 in /  1011.4 hPa ENE 2.0 mph /  3.2 km/h 7.0 mph /  11.3 km/h 96 % 0.00 in /  0 mm
07:20 55.9 °F /  13.3 °C 54.8 °F /  12.7 °C 29.87 in /  1011.4 hPa ENE 2.0 mph /  3.2 km/h 10.0 mph /  16.1 km/h 96 % 0.00 in /  0 mm
07:26 55.9 °F /  13.3 °C 54.8 °F /  12.7 °C 29.87 in /  1011.4 hPa ENE 3.0 mph /  4.8 km/h 9.0 mph /  14.5 km/h 96 % 0.00 in /  0 mm
07:30 55.9 °F /  13.3 °C 54.8 °F /  12.7 °C 29.88 in /  1011.7 hPa ENE 2.0 mph /  3.2 km/h 3.0 mph /  4.8 km/h 96 % 0.00 in /  0 mm
07:36 55.9 °F /  13.3 °C 55.1 °F /  12.8 °C 29.87 in /  1011.4 hPa ENE 2.0 mph /  3.2 km/h 4.0 mph /  6.4 km/h 97 % 0.00 in /  0 mm
07:41 55.9 °F /  13.3 °C 55.1 °F /  12.8 °C 29.86 in /  1011.1 hPa ENE 3.0 mph /  4.8 km/h 6.0 mph /  9.7 km/h 97 % 0.00 in /  0 mm
07:46 55.9 °F /  13.3 °C 55.1 °F /  12.8 °C 29.87 in /  1011.4 hPa ENE 2.0 mph /  3.2 km/h 7.0 mph /  11.3 km/h 97 % 0.00 in /  0 mm
07:51 55.9 °F /  13.3 °C 55.1 °F /  12.8 °C 29.86 in /  1011.1 hPa ENE 3.0 mph /  4.8 km/h 8.0 mph /  12.9 km/h 97 % 0.01 in /  0.25 mm
07:56 55.9 °F /  13.3 °C 55.1 °F /  12.8 °C 29.87 in /  1011.4 hPa ENE 2.0 mph /  3.2 km/h 6.0 mph /  9.7 km/h 97 % 0.00 in /  0 mm
08:01 55.8 °F /  13.2 °C 55.0 °F /  12.8 °C 29.87 in /  1011.4 hPa ENE 1.6 mph /  2.6 km/h 3.5 mph /  5.6 km/h 97 % 0.05 in /  1.27 mm
08:06 55.8 °F /  13.2 °C 55.0 °F /  12.8 °C 29.87 in /  1011.4 hPa ENE 3.3 mph /  5.3 km/h 6.9 mph /  11.1 km/h 97 % 0.04 in /  1.02 mm
08:11 55.8 °F /  13.2 °C 55.0 °F /  12.8 °C 29.87 in /  1011.4 hPa ENE 2.2 mph /  3.5 km/h 3.5 mph /  5.6 km/h 97 % 0.04 in /  1.02 mm
08:16 55.9 °F /  13.3 °C 55.1 °F /  12.8 °C 29.88 in /  1011.7 hPa ENE 2.6 mph /  4.2 km/h 3.5 mph /  5.6 km/h 97 % 0.04 in /  1.02 mm
08:21 55.9 °F /  13.3 °C 55.1 °F /  12.8 °C 29.87 in /  1011.4 hPa ENE 3.8 mph /  6.1 km/h 8.1 mph /  13 km/h 97 % 0.04 in /  1.02 mm
08:26 55.9 °F /  13.3 °C 55.1 °F /  12.8 °C 29.88 in /  1011.7 hPa ENE 3.0 mph /  4.8 km/h 6.9 mph /  11.1 km/h 97 % 0.04 in /  1.02 mm
08:31 55.9 °F /  13.3 °C 55.1 °F /  12.8 °C 29.88 in /  1011.7 hPa East 3.5 mph /  5.6 km/h 5.8 mph /  9.3 km/h 97 % 0.04 in /  1.02 mm
08:36 55.8 °F /  13.2 °C 55.0 °F /  12.8 °C 29.88 in /  1011.7 hPa ENE 3.0 mph /  4.8 km/h 4.6 mph /  7.4 km/h 97 % 0.03 in /  0.76 mm
08:41 55.7 °F /  13.2 °C 54.9 °F /  12.7 °C 29.88 in /  1011.7 hPa ENE 3.5 mph /  5.6 km/h 4.0 mph /  6.4 km/h 97 % 0.03 in /  0.76 mm
08:46 55.7 °F /  13.2 °C 54.9 °F /  12.7 °C 29.88 in /  1011.7 hPa ENE 3.1 mph /  5 km/h 4.0 mph /  6.4 km/h 97 % 0.02 in /  0.51 mm
08:51 55.9 °F /  13.3 °C 55.1 °F /  12.8 °C 29.88 in /  1011.7 hPa ENE 3.2 mph /  5.1 km/h 6.9 mph /  11.1 km/h 97 % 0.01 in /  0.25 mm
08:56 56.0 °F /  13.3 °C 55.2 °F /  12.9 °C 29.88 in /  1011.7 hPa ENE 3.9 mph /  6.3 km/h 5.8 mph /  9.3 km/h 97 % 0.01 in /  0.25 mm
09:01 55.9 °F /  13.3 °C 55.1 °F /  12.8 °C 29.88 in /  1011.7 hPa ENE 2.8 mph /  4.5 km/h 4.6 mph /  7.4 km/h 97 % 0.01 in /  0.25 mm
09:06 55.9 °F /  13.3 °C 55.1 °F /  12.8 °C 29.88 in /  1011.7 hPa ENE 2.1 mph /  3.4 km/h 3.5 mph /  5.6 km/h 97 % 0.01 in /  0.25 mm
09:11 56.0 °F /  13.3 °C 55.2 °F /  12.9 °C 29.88 in /  1011.7 hPa East 3.5 mph /  5.6 km/h 5.0 mph /  8 km/h 97 % 0.00 in /  0 mm
09:16 55.9 °F /  13.3 °C 55.1 °F /  12.8 °C 29.89 in /  1012.1 hPa ENE 2.8 mph /  4.5 km/h 4.0 mph /  6.4 km/h 97 % 0.00 in /  0 mm
09:21 55.9 °F /  13.3 °C 55.1 °F /  12.8 °C 29.89 in /  1012.1 hPa ENE 2.1 mph /  3.4 km/h 3.5 mph /  5.6 km/h 97 % 0.00 in /  0 mm
09:26 56.0 °F /  13.3 °C 55.2 °F /  12.9 °C 29.89 in /  1012.1 hPa ENE 2.4 mph /  3.9 km/h 3.5 mph /  5.6 km/h 97 % 0.01 in /  0.25 mm
09:32 56.1 °F /  13.4 °C 55.3 °F /  12.9 °C 29.88 in /  1011.7 hPa East 2.4 mph /  3.9 km/h 4.6 mph /  7.4 km/h 97 % 0.01 in /  0.25 mm
09:37 56.3 °F /  13.5 °C 55.5 °F /  13.1 °C 29.88 in /  1011.7 hPa East 3.8 mph /  6.1 km/h 5.0 mph /  8 km/h 97 % 0.01 in /  0.25 mm
09:42 56.7 °F /  13.7 °C 55.9 °F /  13.3 °C 29.88 in /  1011.7 hPa East 3.1 mph /  5 km/h 4.6 mph /  7.4 km/h 97 % 0.01 in /  0.25 mm
09:47 57.2 °F /  14 °C 56.6 °F /  13.7 °C 29.89 in /  1012.1 hPa East 2.7 mph /  4.3 km/h 3.5 mph /  5.6 km/h 98 % 0.01 in /  0.25 mm
09:52 57.3 °F /  14.1 °C 56.5 °F /  13.6 °C 29.89 in /  1012.1 hPa ENE 2.2 mph /  3.5 km/h 3.5 mph /  5.6 km/h 97 % 0.01 in /  0.25 mm
09:57 57.5 °F /  14.2 °C 56.7 °F /  13.7 °C 29.89 in /  1012.1 hPa ENE 2.3 mph /  3.7 km/h 4.0 mph /  6.4 km/h 97 % 0.01 in /  0.25 mm
10:02 57.6 °F /  14.2 °C 56.8 °F /  13.8 °C 29.89 in /  1012.1 hPa ENE 2.9 mph /  4.7 km/h 5.8 mph /  9.3 km/h 97 % 0.01 in /  0.25 mm
10:07 57.7 °F /  14.3 °C 56.9 °F /  13.8 °C 29.89 in /  1012.1 hPa East 3.2 mph /  5.1 km/h 5.0 mph /  8 km/h 97 % 0.01 in /  0.25 mm
10:12 57.5 °F /  14.2 °C 56.7 °F /  13.7 °C 29.88 in /  1011.7 hPa East 3.5 mph /  5.6 km/h 5.0 mph /  8 km/h 97 % 0.01 in /  0.25 mm
10:17 57.6 °F /  14.2 °C 56.8 °F /  13.8 °C 29.89 in /  1012.1 hPa ENE 2.1 mph /  3.4 km/h 3.5 mph /  5.6 km/h 97 % 0.01 in /  0.25 mm
10:22 57.6 °F /  14.2 °C 56.8 °F /  13.8 °C 29.90 in /  1012.4 hPa East 2.4 mph /  3.9 km/h 5.0 mph /  8 km/h 97 % 0.01 in /  0.25 mm
10:27 57.6 °F /  14.2 °C 56.8 °F /  13.8 °C 29.90 in /  1012.4 hPa East 2.0 mph /  3.2 km/h 4.6 mph /  7.4 km/h 97 % 0.00 in /  0 mm
10:32 57.4 °F /  14.1 °C 56.3 °F /  13.5 °C 29.89 in /  1012.1 hPa ENE 2.4 mph /  3.9 km/h 4.0 mph /  6.4 km/h 96 % 0.00 in /  0 mm
10:37 57.4 °F /  14.1 °C 56.3 °F /  13.5 °C 29.89 in /  1012.1 hPa ENE 2.8 mph /  4.5 km/h 3.5 mph /  5.6 km/h 96 % 0.00 in /  0 mm
10:42 57.5 °F /  14.2 °C 56.4 °F /  13.6 °C 29.89 in /  1012.1 hPa East 3.6 mph /  5.8 km/h 6.9 mph /  11.1 km/h 96 % 0.00 in /  0 mm
10:47 57.4 °F /  14.1 °C 56.3 °F /  13.5 °C 29.89 in /  1012.1 hPa ENE 2.8 mph /  4.5 km/h 4.0 mph /  6.4 km/h 96 % 0.00 in /  0 mm
10:52 57.1 °F /  13.9 °C 55.7 °F /  13.2 °C 29.90 in /  1012.4 hPa ENE 3.1 mph /  5 km/h 6.9 mph /  11.1 km/h 95 % 0.00 in /  0 mm
10:57 56.9 °F /  13.8 °C 55.5 °F /  13.1 °C 29.90 in /  1012.4 hPa ENE 3.4 mph /  5.5 km/h 4.6 mph /  7.4 km/h 95 % 0.00 in /  0 mm
11:02 56.4 °F /  13.6 °C 54.7 °F /  12.6 °C 29.90 in /  1012.4 hPa ENE 4.5 mph /  7.2 km/h 9.2 mph /  14.8 km/h 94 % 0.00 in /  0 mm
11:07 56.2 °F /  13.4 °C 54.8 °F /  12.7 °C 29.91 in /  1012.8 hPa ENE 3.4 mph /  5.5 km/h 7.0 mph /  11.3 km/h 95 % 0.00 in /  0 mm
11:12 56.0 °F /  13.3 °C 54.3 °F /  12.4 °C 29.91 in /  1012.8 hPa NE 3.5 mph /  5.6 km/h 6.9 mph /  11.1 km/h 94 % 0.00 in /  0 mm
11:17 55.8 °F /  13.2 °C 54.4 °F /  12.4 °C 29.90 in /  1012.4 hPa ENE 2.9 mph /  4.7 km/h 4.6 mph /  7.4 km/h 95 % 0.00 in /  0 mm
11:22 55.7 °F /  13.2 °C 54.3 °F /  12.4 °C 29.90 in /  1012.4 hPa ENE 6.6 mph /  10.6 km/h 9.0 mph /  14.5 km/h 95 % 0.00 in /  0 mm
11:27 55.5 °F /  13.1 °C 54.1 °F /  12.3 °C 29.90 in /  1012.4 hPa East 6.7 mph /  10.8 km/h 9.2 mph /  14.8 km/h 95 % 0.00 in /  0 mm
11:32 55.4 °F /  13 °C 54.0 °F /  12.2 °C 29.91 in /  1012.8 hPa East 6.1 mph /  9.8 km/h 8.0 mph /  12.9 km/h 95 % 0.00 in /  0 mm
11:37 55.2 °F /  12.9 °C 53.8 °F /  12.1 °C 29.91 in /  1012.8 hPa ENE 5.3 mph /  8.5 km/h 11.5 mph /  18.5 km/h 95 % 0.00 in /  0 mm
11:43 55.0 °F /  12.8 °C 53.6 °F /  12 °C 29.90 in /  1012.4 hPa ENE 6.6 mph /  10.6 km/h 13.8 mph /  22.2 km/h 95 % 0.00 in /  0 mm
11:48 54.9 °F /  12.7 °C 53.5 °F /  11.9 °C 29.90 in /  1012.4 hPa East 7.0 mph /  11.3 km/h 16.1 mph /  25.9 km/h 95 % 0.00 in /  0 mm
11:53 54.9 °F /  12.7 °C 53.5 °F /  11.9 °C 29.90 in /  1012.4 hPa ENE 4.6 mph /  7.4 km/h 11.5 mph /  18.5 km/h 95 % 0.00 in /  0 mm
11:58 54.9 °F /  12.7 °C 53.5 °F /  11.9 °C 29.91 in /  1012.8 hPa ENE 7.6 mph /  12.2 km/h 11.5 mph /  18.5 km/h 95 % 0.01 in /  0.25 mm
12:03 54.9 °F /  12.7 °C 53.8 °F /  12.1 °C 29.91 in /  1012.8 hPa East 2.8 mph /  4.5 km/h 8.1 mph /  13 km/h 96 % 0.01 in /  0.25 mm
12:08 54.8 °F /  12.7 °C 53.7 °F /  12.1 °C 29.92 in /  1013.1 hPa ENE 6.0 mph /  9.7 km/h 10.4 mph /  16.7 km/h 96 % 0.01 in /  0.25 mm
12:13 54.7 °F /  12.6 °C 53.6 °F /  12 °C 29.92 in /  1013.1 hPa East 2.9 mph /  4.7 km/h 8.1 mph /  13 km/h 96 % 0.01 in /  0.25 mm
12:18 54.6 °F /  12.6 °C 53.5 °F /  11.9 °C 29.93 in /  1013.4 hPa NE 3.6 mph /  5.8 km/h 10.4 mph /  16.7 km/h 96 % 0.01 in /  0.25 mm
12:21 54.5 °F /  12.5 °C 53.1 °F /  11.7 °C 29.93 in /  1013.4 hPa ENE 7.2 mph /  11.6 km/h 12.7 mph /  20.4 km/h 95 % 0.01 in /  0.25 mm
12:26 54.4 °F /  12.4 °C 53.3 °F /  11.8 °C 29.93 in /  1013.4 hPa NE 6.3 mph /  10.1 km/h 9.2 mph /  14.8 km/h 96 % 0.01 in /  0.25 mm
12:31 54.4 °F /  12.4 °C 53.3 °F /  11.8 °C 29.93 in /  1013.4 hPa ENE 4.0 mph /  6.4 km/h 6.9 mph /  11.1 km/h 96 % 0.02 in /  0.51 mm
12:36 54.5 °F /  12.5 °C 53.4 °F /  11.9 °C 29.92 in /  1013.1 hPa ENE 4.6 mph /  7.4 km/h 10.0 mph /  16.1 km/h 96 % 0.02 in /  0.51 mm
12:42 54.5 °F /  12.5 °C 53.4 °F /  11.9 °C 29.92 in /  1013.1 hPa ENE 6.4 mph /  10.3 km/h 10.4 mph /  16.7 km/h 96 % 0.02 in /  0.51 mm
12:47 54.5 °F /  12.5 °C 53.4 °F /  11.9 °C 29.93 in /  1013.4 hPa NE 2.8 mph /  4.5 km/h 11.5 mph /  18.5 km/h 96 % 0.03 in /  0.76 mm
12:52 54.6 °F /  12.6 °C 53.5 °F /  11.9 °C 29.94 in /  1013.8 hPa East 4.2 mph /  6.8 km/h 6.9 mph /  11.1 km/h 96 % 0.03 in /  0.76 mm
12:53 54.6 °F /  12.6 °C 53.5 °F /  11.9 °C 29.94 in /  1013.8 hPa NNE 5.0 mph /  8 km/h 8.1 mph /  13 km/h 96 % 0.03 in /  0.76 mm
12:58 54.4 °F /  12.4 °C 53.3 °F /  11.8 °C 29.95 in /  1014.1 hPa NE 7.2 mph /  11.6 km/h 9.2 mph /  14.8 km/h 96 % 0.02 in /  0.51 mm
13:03 54.3 °F /  12.4 °C 53.2 °F /  11.8 °C 29.96 in /  1014.4 hPa NNE 6.0 mph /  9.7 km/h 9.2 mph /  14.8 km/h 96 % 0.02 in /  0.51 mm
13:08 54.3 °F /  12.4 °C 53.2 °F /  11.8 °C 29.95 in /  1014.1 hPa ENE 5.3 mph /  8.5 km/h 10.4 mph /  16.7 km/h 96 % 0.02 in /  0.51 mm
13:11 54.3 °F /  12.4 °C 53.2 °F /  11.8 °C 29.94 in /  1013.8 hPa ENE 3.2 mph /  5.1 km/h 11.5 mph /  18.5 km/h 96 % 0.02 in /  0.51 mm
13:16 54.4 °F /  12.4 °C 53.3 °F /  11.8 °C 29.95 in /  1014.1 hPa ENE 6.0 mph /  9.7 km/h 13.0 mph /  20.9 km/h 96 % 0.00 in /  0 mm
13:21 54.3 °F /  12.4 °C 53.2 °F /  11.8 °C 29.96 in /  1014.4 hPa ENE 5.0 mph /  8 km/h 9.0 mph /  14.5 km/h 96 % 0.00 in /  0 mm
13:26 54.3 °F /  12.4 °C 53.2 °F /  11.8 °C 29.96 in /  1014.4 hPa ENE 2.0 mph /  3.2 km/h 8.0 mph /  12.9 km/h 96 % 0.00 in /  0 mm
13:31 54.2 °F /  12.3 °C 53.1 °F /  11.7 °C 29.96 in /  1014.4 hPa ENE 6.0 mph /  9.7 km/h 9.0 mph /  14.5 km/h 96 % 0.00 in /  0 mm
13:36 54.2 °F /  12.3 °C 53.1 °F /  11.7 °C 29.96 in /  1014.4 hPa ENE 5.0 mph /  8 km/h 10.0 mph /  16.1 km/h 96 % 0.00 in /  0 mm
13:41 54.3 °F /  12.4 °C 53.2 °F /  11.8 °C 29.96 in /  1014.4 hPa ENE 2.0 mph /  3.2 km/h 7.0 mph /  11.3 km/h 96 % 0.00 in /  0 mm
13:46 54.4 °F /  12.4 °C 53.3 °F /  11.8 °C 29.95 in /  1014.1 hPa ENE 2.0 mph /  3.2 km/h 10.0 mph /  16.1 km/h 96 % 0.00 in /  0 mm
13:51 54.4 °F /  12.4 °C 53.3 °F /  11.8 °C 29.95 in /  1014.1 hPa ENE 5.0 mph /  8 km/h 9.0 mph /  14.5 km/h 96 % 0.00 in /  0 mm
13:56 54.5 °F /  12.5 °C 53.4 °F /  11.9 °C 29.96 in /  1014.4 hPa ENE 3.0 mph /  4.8 km/h 7.0 mph /  11.3 km/h 96 % 0.00 in /  0 mm
14:01 54.6 °F /  12.6 °C 53.5 °F /  11.9 °C 29.96 in /  1014.4 hPa ENE 2.3 mph /  3.7 km/h 4.0 mph /  6.4 km/h 96 % 0.01 in /  0.25 mm
14:06 54.5 °F /  12.5 °C 53.4 °F /  11.9 °C 29.96 in /  1014.4 hPa ENE 3.0 mph /  4.8 km/h 7.0 mph /  11.3 km/h 96 % 0.00 in /  0 mm
14:11 54.6 °F /  12.6 °C 53.5 °F /  11.9 °C 29.96 in /  1014.4 hPa East 2.2 mph /  3.5 km/h 3.5 mph /  5.6 km/h 96 % 0.01 in /  0.25 mm
14:16 54.6 °F /  12.6 °C 53.5 °F /  11.9 °C 29.97 in /  1014.8 hPa ENE 3.0 mph /  4.8 km/h 5.0 mph /  8 km/h 96 % 0.00 in /  0 mm
14:21 54.6 °F /  12.6 °C 53.5 °F /  11.9 °C 29.97 in /  1014.8 hPa ENE 2.0 mph /  3.2 km/h 7.0 mph /  11.3 km/h 96 % 0.00 in /  0 mm
14:26 54.6 °F /  12.6 °C 53.5 °F /  11.9 °C 29.97 in /  1014.8 hPa ENE 3.0 mph /  4.8 km/h 7.0 mph /  11.3 km/h 96 % 0.00 in /  0 mm
14:28 54.5 °F /  12.5 °C 53.4 °F /  11.9 °C 29.98 in /  1015.1 hPa ENE 2.8 mph /  4.5 km/h 3.5 mph /  5.6 km/h 96 % 0.01 in /  0.25 mm
14:33 54.5 °F /  12.5 °C 53.4 °F /  11.9 °C 29.98 in /  1015.1 hPa ENE 6.1 mph /  9.8 km/h 9.2 mph /  14.8 km/h 96 % 0.01 in /  0.25 mm
14:38 54.5 °F /  12.5 °C 53.4 °F /  11.9 °C 29.98 in /  1015.1 hPa ENE 3.4 mph /  5.5 km/h 4.6 mph /  7.4 km/h 96 % 0.01 in /  0.25 mm
14:43 54.4 °F /  12.4 °C 53.3 °F /  11.8 °C 29.98 in /  1015.1 hPa ENE 3.7 mph /  6 km/h 6.9 mph /  11.1 km/h 96 % 0.01 in /  0.25 mm
14:48 54.3 °F /  12.4 °C 53.2 °F /  11.8 °C 29.98 in /  1015.1 hPa NE 2.4 mph /  3.9 km/h 3.5 mph /  5.6 km/h 96 % 0.00 in /  0 mm
14:53 54.2 °F /  12.3 °C 53.1 °F /  11.7 °C 29.98 in /  1015.1 hPa ENE 2.3 mph /  3.7 km/h 4.6 mph /  7.4 km/h 96 % 0.00 in /  0 mm
14:58 54.2 °F /  12.3 °C 53.1 °F /  11.7 °C 29.98 in /  1015.1 hPa ENE 2.2 mph /  3.5 km/h 3.5 mph /  5.6 km/h 96 % 0.00 in /  0 mm
15:03 54.4 °F /  12.4 °C 53.3 °F /  11.8 °C 29.98 in /  1015.1 hPa ENE 1.8 mph /  2.9 km/h 3.0 mph /  4.8 km/h 96 % 0.00 in /  0 mm
15:08 54.4 °F /  12.4 °C 53.3 °F /  11.8 °C 29.98 in /  1015.1 hPa ENE 2.4 mph /  3.9 km/h 3.5 mph /  5.6 km/h 96 % 0.00 in /  0 mm
15:14 54.4 °F /  12.4 °C 53.3 °F /  11.8 °C 29.99 in /  1015.5 hPa ENE 2.4 mph /  3.9 km/h 3.5 mph /  5.6 km/h 96 % 0.00 in /  0 mm
15:19 54.5 °F /  12.5 °C 53.4 °F /  11.9 °C 29.98 in /  1015.1 hPa ENE 2.1 mph /  3.4 km/h 3.5 mph /  5.6 km/h 96 % 0.00 in /  0 mm
15:24 54.6 °F /  12.6 °C 53.5 °F /  11.9 °C 29.98 in /  1015.1 hPa East 2.5 mph /  4 km/h 4.6 mph /  7.4 km/h 96 % 0.00 in /  0 mm
15:29 54.7 °F /  12.6 °C 53.6 °F /  12 °C 29.98 in /  1015.1 hPa ENE 2.6 mph /  4.2 km/h 4.0 mph /  6.4 km/h 96 % 0.00 in /  0 mm
15:34 54.8 °F /  12.7 °C 53.7 °F /  12.1 °C 29.97 in /  1014.8 hPa ENE 2.8 mph /  4.5 km/h 3.5 mph /  5.6 km/h 96 % 0.00 in /  0 mm
15:39 55.2 °F /  12.9 °C 54.4 °F /  12.4 °C 29.99 in /  1015.5 hPa East 1.3 mph /  2.1 km/h 3.5 mph /  5.6 km/h 97 % 0.00 in /  0 mm
15:44 55.3 °F /  12.9 °C 54.5 °F /  12.5 °C 29.99 in /  1015.5 hPa East 1.7 mph /  2.7 km/h 3.5 mph /  5.6 km/h 97 % 0.00 in /  0 mm
15:49 55.1 °F /  12.8 °C 54.0 °F /  12.2 °C 29.99 in /  1015.5 hPa ENE 2.0 mph /  3.2 km/h 3.5 mph /  5.6 km/h 96 % 0.00 in /  0 mm
15:54 55.1 °F /  12.8 °C 54.0 °F /  12.2 °C 29.99 in /  1015.5 hPa ENE 1.6 mph /  2.6 km/h 2.3 mph /  3.7 km/h 96 % 0.00 in /  0 mm
15:59 55.2 °F /  12.9 °C 54.1 °F /  12.3 °C 29.99 in /  1015.5 hPa ENE 1.2 mph /  1.9 km/h 2.3 mph /  3.7 km/h 96 % 0.00 in /  0 mm
16:04 55.2 °F /  12.9 °C 54.1 °F /  12.3 °C 30.00 in /  1015.8 hPa ENE 0.7 mph /  1.1 km/h 2.3 mph /  3.7 km/h 96 % 0.00 in /  0 mm
16:09 55.2 °F /  12.9 °C 54.1 °F /  12.3 °C 29.99 in /  1015.5 hPa ENE 1.1 mph /  1.8 km/h 2.3 mph /  3.7 km/h 96 % 0.00 in /  0 mm
16:14 55.1 °F /  12.8 °C 54.0 °F /  12.2 °C 29.99 in /  1015.5 hPa ENE 1.2 mph /  1.9 km/h 2.3 mph /  3.7 km/h 96 % 0.00 in /  0 mm
16:19 55.1 °F /  12.8 °C 54.0 °F /  12.2 °C 29.99 in /  1015.5 hPa ENE 1.4 mph /  2.3 km/h 3.5 mph /  5.6 km/h 96 % 0.00 in /  0 mm
16:24 55.1 °F /  12.8 °C 54.0 °F /  12.2 °C 29.99 in /  1015.5 hPa ENE 0.7 mph /  1.1 km/h 2.3 mph /  3.7 km/h 96 % 0.00 in /  0 mm
16:29 55.1 °F /  12.8 °C 54.0 °F /  12.2 °C 29.99 in /  1015.5 hPa ENE 1.0 mph /  1.6 km/h 2.3 mph /  3.7 km/h 96 % 0.00 in /  0 mm
16:34 55.1 °F /  12.8 °C 54.0 °F /  12.2 °C 30.00 in /  1015.8 hPa ENE 0.8 mph /  1.3 km/h 2.3 mph /  3.7 km/h 96 % 0.00 in /  0 mm
16:39 55.2 °F /  12.9 °C 54.1 °F /  12.3 °C 30.00 in /  1015.8 hPa ENE 0.4 mph /  0.6 km/h 2.3 mph /  3.7 km/h 96 % 0.00 in /  0 mm
16:44 55.2 °F /  12.9 °C 54.1 °F /  12.3 °C 30.00 in /  1015.8 hPa ENE 0.5 mph /  0.8 km/h 1.2 mph /  1.9 km/h 96 % 0.00 in /  0 mm
16:49 55.2 °F /  12.9 °C 54.1 °F /  12.3 °C 30.00 in /  1015.8 hPa ENE 1.4 mph /  2.3 km/h 2.3 mph /  3.7 km/h 96 % 0.00 in /  0 mm
16:54 55.3 °F /  12.9 °C 54.2 °F /  12.3 °C 30.00 in /  1015.8 hPa ENE 0.6 mph /  1 km/h 2.3 mph /  3.7 km/h 96 % 0.00 in /  0 mm
17:00 55.5 °F /  13.1 °C 54.4 °F /  12.4 °C 30.00 in /  1015.8 hPa ENE 0.2 mph /  0.3 km/h 2.3 mph /  3.7 km/h 96 % 0.00 in /  0 mm
17:05 55.5 °F /  13.1 °C 54.4 °F /  12.4 °C 30.00 in /  1015.8 hPa ENE 0.1 mph /  0.2 km/h 1.2 mph /  1.9 km/h 96 % 0.00 in /  0 mm
17:10 55.5 °F /  13.1 °C 54.4 °F /  12.4 °C 30.00 in /  1015.8 hPa ENE 0.2 mph /  0.3 km/h 1.2 mph /  1.9 km/h 96 % 0.00 in /  0 mm
17:15 55.5 °F /  13.1 °C 54.4 °F /  12.4 °C 30.01 in /  1016.1 hPa ENE 0.3 mph /  0.5 km/h 1.2 mph /  1.9 km/h 96 % 0.00 in /  0 mm
17:20 55.5 °F /  13.1 °C 54.4 °F /  12.4 °C 30.01 in /  1016.1 hPa ENE 0.7 mph /  1.1 km/h 2.3 mph /  3.7 km/h 96 % 0.00 in /  0 mm
17:25 55.5 °F /  13.1 °C 54.4 °F /  12.4 °C 30.02 in /  1016.5 hPa ENE 0.1 mph /  0.2 km/h 1.2 mph /  1.9 km/h 96 % 0.00 in /  0 mm
17:30 55.6 °F /  13.1 °C 54.5 °F /  12.5 °C 30.02 in /  1016.5 hPa ENE 0.1 mph /  0.2 km/h 1.2 mph /  1.9 km/h 96 % 0.00 in /  0 mm
17:31 55.6 °F /  13.1 °C 54.5 °F /  12.5 °C 30.02 in /  1016.5 hPa Calm   1.2 mph /  1.9 km/h 96 % 0.00 in /  0 mm
17:36 55.5 °F /  13.1 °C 54.4 °F /  12.4 °C 30.02 in /  1016.5 hPa Calm   1.2 mph /  1.9 km/h 96 % 0.00 in /  0 mm
17:41 55.5 °F /  13.1 °C 54.4 °F /  12.4 °C 30.02 in /  1016.5 hPa ENE 0.1 mph /  0.2 km/h 1.2 mph /  1.9 km/h 96 % 0.00 in /  0 mm
17:46 55.5 °F /  13.1 °C 54.4 °F /  12.4 °C 30.02 in /  1016.5 hPa ENE 0.2 mph /  0.3 km/h 1.2 mph /  1.9 km/h 96 % 0.00 in /  0 mm
17:51 55.4 °F /  13 °C 54.3 °F /  12.4 °C 30.01 in /  1016.1 hPa ENE 0.2 mph /  0.3 km/h 1.2 mph /  1.9 km/h 96 % 0.00 in /  0 mm
17:56 55.4 °F /  13 °C 54.0 °F /  12.2 °C 30.01 in /  1016.1 hPa ENE 1.0 mph /  1.6 km/h 2.3 mph /  3.7 km/h 95 % 0.00 in /  0 mm
18:01 55.5 °F /  13.1 °C 54.4 °F /  12.4 °C 30.01 in /  1016.1 hPa ENE 0.9 mph /  1.4 km/h 2.3 mph /  3.7 km/h 96 % 0.00 in /  0 mm
18:06 55.6 °F /  13.1 °C 54.2 °F /  12.3 °C 30.01 in /  1016.1 hPa ENE 0.1 mph /  0.2 km/h 1.0 mph /  1.6 km/h 95 % 0.00 in /  0 mm
18:11 55.7 °F /  13.2 °C 54.3 °F /  12.4 °C 30.01 in /  1016.1 hPa ENE 0.1 mph /  0.2 km/h 1.2 mph /  1.9 km/h 95 % 0.00 in /  0 mm
18:16 55.7 °F /  13.2 °C 54.3 °F /  12.4 °C 30.02 in /  1016.5 hPa ENE 0.1 mph /  0.2 km/h 1.2 mph /  1.9 km/h 95 % 0.00 in /  0 mm
18:21 55.7 °F /  13.2 °C 54.3 °F /  12.4 °C 30.02 in /  1016.5 hPa ENE 0.1 mph /  0.2 km/h 1.2 mph /  1.9 km/h 95 % 0.00 in /  0 mm
18:26 55.8 °F /  13.2 °C 54.4 °F /  12.4 °C 30.02 in /  1016.5 hPa ENE 0.3 mph /  0.5 km/h 1.2 mph /  1.9 km/h 95 % 0.00 in /  0 mm
18:31 55.8 °F /  13.2 °C 54.4 °F /  12.4 °C 30.03 in /  1016.8 hPa ENE 0.1 mph /  0.2 km/h 1.2 mph /  1.9 km/h 95 % 0.00 in /  0 mm
18:36 55.8 °F /  13.2 °C 54.4 °F /  12.4 °C 30.03 in /  1016.8 hPa Calm     95 % 0.00 in /  0 mm
18:41 55.8 °F /  13.2 °C 54.4 °F /  12.4 °C 30.03 in /  1016.8 hPa Calm     95 % 0.00 in /  0 mm
18:46 55.8 °F /  13.2 °C 54.4 °F /  12.4 °C 30.03 in /  1016.8 hPa ENE 0.1 mph /  0.2 km/h 1.2 mph /  1.9 km/h 95 % 0.00 in /  0 mm
18:51 55.7 °F /  13.2 °C 54.3 °F /  12.4 °C 30.03 in /  1016.8 hPa Calm     95 % 0.00 in /  0 mm
18:56 55.7 °F /  13.2 °C 54.3 °F /  12.4 °C 30.03 in /  1016.8 hPa ENE 0.1 mph /  0.2 km/h 1.2 mph /  1.9 km/h 95 % 0.00 in /  0 mm
19:01 55.7 °F /  13.2 °C 54.3 °F /  12.4 °C 30.03 in /  1016.8 hPa ENE 0.1 mph /  0.2 km/h 1.2 mph /  1.9 km/h 95 % 0.00 in /  0 mm
19:06 55.7 °F /  13.2 °C 54.3 °F /  12.4 °C 30.04 in /  1017.2 hPa Calm     95 % 0.00 in /  0 mm
19:11 55.7 °F /  13.2 °C 54.3 °F /  12.4 °C 30.04 in /  1017.2 hPa Calm     95 % 0.00 in /  0 mm
19:16 55.7 °F /  13.2 °C 54.3 °F /  12.4 °C 30.04 in /  1017.2 hPa Calm   1.2 mph /  1.9 km/h 95 % 0.00 in /  0 mm
19:21 55.7 °F /  13.2 °C 54.3 °F /  12.4 °C 30.04 in /  1017.2 hPa Calm   1.0 mph /  1.6 km/h 95 % 0.00 in /  0 mm
19:26 55.7 °F /  13.2 °C 54.3 °F /  12.4 °C 30.04 in /  1017.2 hPa Calm   3.5 mph /  5.6 km/h 95 % 0.00 in /  0 mm
19:31 55.7 °F /  13.2 °C 54.3 °F /  12.4 °C 30.04 in /  1017.2 hPa Calm   1.2 mph /  1.9 km/h 95 % 0.00 in /  0 mm
19:36 55.8 °F /  13.2 °C 54.4 °F /  12.4 °C 30.05 in /  1017.5 hPa Calm     95 % 0.00 in /  0 mm
19:41 55.8 °F /  13.2 °C 54.4 °F /  12.4 °C 30.05 in /  1017.5 hPa Calm     95 % 0.00 in /  0 mm
19:46 55.7 °F /  13.2 °C 54.3 °F /  12.4 °C 30.05 in /  1017.5 hPa Calm     95 % 0.00 in /  0 mm
19:51 55.7 °F /  13.2 °C 54.3 °F /  12.4 °C 30.05 in /  1017.5 hPa Calm     95 % 0.00 in /  0 mm
19:56 55.8 °F /  13.2 °C 54.4 °F /  12.4 °C 30.05 in /  1017.5 hPa Calm     95 % 0.00 in /  0 mm
20:01 55.7 °F /  13.2 °C 54.3 °F /  12.4 °C 30.04 in /  1017.2 hPa Calm     95 % 0.00 in /  0 mm
20:07 55.7 °F /  13.2 °C 54.3 °F /  12.4 °C 30.04 in /  1017.2 hPa Calm     95 % 0.00 in /  0 mm
20:12 55.7 °F /  13.2 °C 54.3 °F /  12.4 °C 30.05 in /  1017.5 hPa Calm     95 % 0.00 in /  0 mm
20:17 55.6 °F /  13.1 °C 54.2 °F /  12.3 °C 30.05 in /  1017.5 hPa Calm     95 % 0.00 in /  0 mm
20:22 55.6 °F /  13.1 °C 54.2 °F /  12.3 °C 30.04 in /  1017.2 hPa Calm   1.2 mph /  1.9 km/h 95 % 0.00 in /  0 mm
20:27 55.5 °F /  13.1 °C 53.8 °F /  12.1 °C 30.04 in /  1017.2 hPa Calm     94 % 0.00 in /  0 mm
20:32 55.5 °F /  13.1 °C 53.8 °F /  12.1 °C 30.04 in /  1017.2 hPa Calm     94 % 0.00 in /  0 mm
20:37 55.5 °F /  13.1 °C 53.8 °F /  12.1 °C 30.04 in /  1017.2 hPa Calm     94 % 0.00 in /  0 mm
20:42 55.4 °F /  13 °C 53.7 °F /  12.1 °C 30.05 in /  1017.5 hPa Calm     94 % 0.00 in /  0 mm
20:47 55.4 °F /  13 °C 53.7 °F /  12.1 °C 30.05 in /  1017.5 hPa Calm   2.3 mph /  3.7 km/h 94 % 0.00 in /  0 mm
20:52 55.4 °F /  13 °C 53.7 °F /  12.1 °C 30.05 in /  1017.5 hPa Calm     94 % 0.00 in /  0 mm
20:57 55.4 °F /  13 °C 53.7 °F /  12.1 °C 30.05 in /  1017.5 hPa Calm     94 % 0.00 in /  0 mm
21:02 55.3 °F /  12.9 °C 53.6 °F /  12 °C 30.05 in /  1017.5 hPa Calm     94 % 0.00 in /  0 mm
21:07 55.3 °F /  12.9 °C 53.6 °F /  12 °C 30.05 in /  1017.5 hPa Calm     94 % 0.00 in /  0 mm
21:12 55.3 °F /  12.9 °C 53.9 °F /  12.2 °C 30.05 in /  1017.5 hPa Calm     95 % 0.00 in /  0 mm
21:17 55.3 °F /  12.9 °C 53.9 °F /  12.2 °C 30.05 in /  1017.5 hPa Calm     95 % 0.00 in /  0 mm
21:22 55.3 °F /  12.9 °C 53.9 °F /  12.2 °C 30.05 in /  1017.5 hPa Calm     95 % 0.00 in /  0 mm
21:27 55.2 °F /  12.9 °C 53.8 °F /  12.1 °C 30.05 in /  1017.5 hPa Calm     95 % 0.00 in /  0 mm
21:32 55.2 °F /  12.9 °C 53.8 °F /  12.1 °C 30.06 in /  1017.8 hPa Calm     95 % 0.00 in /  0 mm
21:37 55.2 °F /  12.9 °C 53.8 °F /  12.1 °C 30.06 in /  1017.8 hPa ESE 1.0 mph /  1.6 km/h 3.5 mph /  5.6 km/h 95 % 0.00 in /  0 mm
21:42 55.2 °F /  12.9 °C 53.8 °F /  12.1 °C 30.06 in /  1017.8 hPa Calm     95 % 0.00 in /  0 mm
21:47 55.1 °F /  12.8 °C 53.7 °F /  12.1 °C 30.06 in /  1017.8 hPa Calm   1.2 mph /  1.9 km/h 95 % 0.00 in /  0 mm
21:52 55.1 °F /  12.8 °C 53.7 °F /  12.1 °C 30.06 in /  1017.8 hPa SE 0.1 mph /  0.2 km/h   95 % 0.00 in /  0 mm
21:57 55.1 °F /  12.8 °C 53.7 °F /  12.1 °C 30.06 in /  1017.8 hPa SE 0.5 mph /  0.8 km/h 1.2 mph /  1.9 km/h 95 % 0.00 in /  0 mm
22:02 55.1 °F /  12.8 °C 53.7 °F /  12.1 °C 30.06 in /  1017.8 hPa Calm   1.2 mph /  1.9 km/h 95 % 0.00 in /  0 mm
22:07 55.1 °F /  12.8 °C 53.7 °F /  12.1 °C 30.06 in /  1017.8 hPa SE 0.1 mph /  0.2 km/h 1.2 mph /  1.9 km/h 95 % 0.00 in /  0 mm
22:12 55.0 °F /  12.8 °C 53.6 °F /  12 °C 30.06 in /  1017.8 hPa SE 0.2 mph /  0.3 km/h 1.2 mph /  1.9 km/h 95 % 0.00 in /  0 mm
22:17 55.0 °F /  12.8 °C 53.6 °F /  12 °C 30.06 in /  1017.8 hPa Calm   1.0 mph /  1.6 km/h 95 % 0.00 in /  0 mm
22:22 55.0 °F /  12.8 °C 53.6 °F /  12 °C 30.06 in /  1017.8 hPa Calm   1.2 mph /  1.9 km/h 95 % 0.00 in /  0 mm
22:23 55.0 °F /  12.8 °C 53.6 °F /  12 °C 30.06 in /  1017.8 hPa Calm     95 % 0.00 in /  0 mm
22:28 55.0 °F /  12.8 °C 53.6 °F /  12 °C 30.06 in /  1017.8 hPa SE 0.3 mph /  0.5 km/h 2.3 mph /  3.7 km/h 95 % 0.00 in /  0 mm
22:33 54.9 °F /  12.7 °C 53.5 °F /  11.9 °C 30.05 in /  1017.5 hPa SE 0.5 mph /  0.8 km/h 2.3 mph /  3.7 km/h 95 % 0.00 in /  0 mm
22:38 54.9 °F /  12.7 °C 53.5 °F /  11.9 °C 30.06 in /  1017.8 hPa Calm   2.3 mph /  3.7 km/h 95 % 0.00 in /  0 mm
22:43 54.8 °F /  12.7 °C 53.4 °F /  11.9 °C 30.06 in /  1017.8 hPa SE 0.8 mph /  1.3 km/h 2.3 mph /  3.7 km/h 95 % 0.00 in /  0 mm
22:48 54.8 °F /  12.7 °C 53.4 °F /  11.9 °C 30.06 in /  1017.8 hPa SE 0.2 mph /  0.3 km/h 1.2 mph /  1.9 km/h 95 % 0.00 in /  0 mm
22:53 54.8 °F /  12.7 °C 53.4 °F /  11.9 °C 30.06 in /  1017.8 hPa SE 0.3 mph /  0.5 km/h 2.3 mph /  3.7 km/h 95 % 0.00 in /  0 mm
22:58 54.8 °F /  12.7 °C 53.4 °F /  11.9 °C 30.06 in /  1017.8 hPa Calm     95 % 0.00 in /  0 mm
23:03 54.8 °F /  12.7 °C 53.4 °F /  11.9 °C 30.06 in /  1017.8 hPa Calm     95 % 0.00 in /  0 mm
23:08 54.7 °F /  12.6 °C 53.3 °F /  11.8 °C 30.07 in /  1018.2 hPa Calm     95 % 0.00 in /  0 mm
23:18 54.7 °F /  12.6 °C 53.3 °F /  11.8 °C 30.07 in /  1018.2 hPa Calm     95 % 0.00 in /  0 mm
23:24 54.7 °F /  12.6 °C 53.3 °F /  11.8 °C 30.06 in /  1017.8 hPa Calm     95 % 0.00 in /  0 mm
23:29 54.7 °F /  12.6 °C 53.3 °F /  11.8 °C 30.06 in /  1017.8 hPa Calm   1.2 mph /  1.9 km/h 95 % 0.00 in /  0 mm
23:34 54.7 °F /  12.6 °C 53.3 °F /  11.8 °C 30.06 in /  1017.8 hPa Calm     95 % 0.00 in /  0 mm
23:39 54.7 °F /  12.6 °C 53.3 °F /  11.8 °C 30.06 in /  1017.8 hPa Calm     95 % 0.00 in /  0 mm
23:44 54.7 °F /  12.6 °C 53.3 °F /  11.8 °C 30.06 in /  1017.8 hPa Calm     95 % 0.00 in /  0 mm
23:49 54.7 °F /  12.6 °C 53.3 °F /  11.8 °C 30.06 in /  1017.8 hPa Calm   1.2 mph /  1.9 km/h 95 % 0.00 in /  0 mm
23:54 54.8 °F /  12.7 °C 53.4 °F /  11.9 °C 30.06 in /  1017.8 hPa Calm     95 % 0.00 in /  0 mm
23:59 54.8 °F /  12.7 °C 53.4 °F /  11.9 °C 30.06 in /  1017.8 hPa Calm     95 % 0.00 in /  0 mm
Crab Meadow Weather
Compliments of Weather Underground - 3 mb

Script developed by  Jim McMurry - jmcmurry@mwt.net Adapted for the template by  Wim van der Kuil - Leuven-Template.eu

Dew Point: The dew point is the temperature to which air must be cooled, at constant barometric pressure, for water vapor to condense into water. The condensed water is called dew. When the dew point temperature falls below freezing it is called the frost point, as the water no longer creates dew but instead creates frost. The dew point is associated with relative humidity. A high relative humidity indicates that the dew point is closer to the current air temperature. If the relative humidity is 100%, the dew point is equal to the current temperature. Given a constant dew point, an increase in temperature will lead to a decrease in relative humidity.